sensor_id;sensor_type;location;lat;lon;timestamp;P1;durP1;ratioP1;P2;durP2;ratioP2
31043;SDS011;17710;52.520;13.352;2024-02-26T00:02:08;13.00;;;5.65;;
31043;SDS011;17710;52.520;13.352;2024-02-26T00:04:34;13.07;;;6.00;;
31043;SDS011;17710;52.520;13.352;2024-02-26T00:07:00;14.18;;;5.45;;
31043;SDS011;17710;52.520;13.352;2024-02-26T00:09:27;10.40;;;5.45;;
31043;SDS011;17710;52.520;13.352;2024-02-26T00:11:54;15.50;;;5.90;;
31043;SDS011;17710;52.520;13.352;2024-02-26T00:14:20;12.30;;;4.95;;
31043;SDS011;17710;52.520;13.352;2024-02-26T00:16:48;11.90;;;5.43;;
31043;SDS011;17710;52.520;13.352;2024-02-26T00:19:15;13.15;;;5.63;;
31043;SDS011;17710;52.520;13.352;2024-02-26T00:21:41;16.73;;;4.65;;
31043;SDS011;17710;52.520;13.352;2024-02-26T00:24:08;15.00;;;5.63;;
31043;SDS011;17710;52.520;13.352;2024-02-26T00:26:34;13.45;;;6.43;;
31043;SDS011;17710;52.520;13.352;2024-02-26T00:29:01;14.68;;;6.10;;
31043;SDS011;17710;52.520;13.352;2024-02-26T00:31:27;17.25;;;5.90;;
31043;SDS011;17710;52.520;13.352;2024-02-26T00:33:55;11.60;;;5.05;;
31043;SDS011;17710;52.520;13.352;2024-02-26T00:36:22;15.50;;;5.90;;
31043;SDS011;17710;52.520;13.352;2024-02-26T00:38:48;11.48;;;5.93;;
31043;SDS011;17710;52.520;13.352;2024-02-26T00:41:16;13.50;;;5.88;;
31043;SDS011;17710;52.520;13.352;2024-02-26T00:43:43;13.93;;;6.15;;
31043;SDS011;17710;52.520;13.352;2024-02-26T00:46:10;14.90;;;6.22;;
31043;SDS011;17710;52.520;13.352;2024-02-26T00:48:36;12.10;;;6.07;;
31043;SDS011;17710;52.520;13.352;2024-02-26T00:51:06;14.63;;;7.18;;
31043;SDS011;17710;52.520;13.352;2024-02-26T00:53:33;14.15;;;6.53;;
31043;SDS011;17710;52.520;13.352;2024-02-26T00:56:00;13.23;;;6.70;;
31043;SDS011;17710;52.520;13.352;2024-02-26T00:58:27;17.27;;;6.45;;
31043;SDS011;17710;52.520;13.352;2024-02-26T01:00:53;13.40;;;6.57;;
31043;SDS011;17710;52.520;13.352;2024-02-26T01:03:20;17.85;;;7.20;;
31043;SDS011;17710;52.520;13.352;2024-02-26T01:05:46;16.10;;;7.15;;
31043;SDS011;17710;52.520;13.352;2024-02-26T01:08:14;14.45;;;7.28;;
31043;SDS011;17710;52.520;13.352;2024-02-26T01:10:41;14.13;;;6.70;;
31043;SDS011;17710;52.520;13.352;2024-02-26T01:13:07;14.60;;;7.47;;
31043;SDS011;17710;52.520;13.352;2024-02-26T01:15:34;13.93;;;7.03;;
31043;SDS011;17710;52.520;13.352;2024-02-26T01:18:00;14.80;;;7.55;;
31043;SDS011;17710;52.520;13.352;2024-02-26T01:20:26;13.48;;;7.43;;
31043;SDS011;17710;52.520;13.352;2024-02-26T01:22:53;13.10;;;7.22;;
31043;SDS011;17710;52.520;13.352;2024-02-26T01:25:21;14.32;;;7.53;;
31043;SDS011;17710;52.520;13.352;2024-02-26T01:27:47;16.88;;;7.82;;
31043;SDS011;17710;52.520;13.352;2024-02-26T01:32:41;15.90;;;7.43;;
31043;SDS011;17710;52.520;13.352;2024-02-26T01:35:07;16.05;;;7.90;;
31043;SDS011;17710;52.520;13.352;2024-02-26T01:37:36;15.18;;;7.32;;
31043;SDS011;17710;52.520;13.352;2024-02-26T01:40:03;18.95;;;8.00;;
31043;SDS011;17710;52.520;13.352;2024-02-26T01:42:32;14.60;;;7.97;;
31043;SDS011;17710;52.520;13.352;2024-02-26T01:44:58;15.30;;;7.80;;
31043;SDS011;17710;52.520;13.352;2024-02-26T01:47:25;20.38;;;7.05;;
31043;SDS011;17710;52.520;13.352;2024-02-26T01:49:52;18.02;;;8.57;;
31043;SDS011;17710;52.520;13.352;2024-02-26T01:52:19;12.35;;;7.78;;
31043;SDS011;17710;52.520;13.352;2024-02-26T01:54:47;16.83;;;8.27;;
31043;SDS011;17710;52.520;13.352;2024-02-26T01:57:14;13.45;;;7.78;;
31043;SDS011;17710;52.520;13.352;2024-02-26T01:59:43;16.92;;;7.90;;
31043;SDS011;17710;52.520;13.352;2024-02-26T02:02:10;16.75;;;8.65;;
31043;SDS011;17710;52.520;13.352;2024-02-26T02:04:38;14.52;;;7.68;;
31043;SDS011;17710;52.520;13.352;2024-02-26T02:07:05;13.18;;;7.43;;
31043;SDS011;17710;52.520;13.352;2024-02-26T02:09:32;16.10;;;8.35;;
31043;SDS011;17710;52.520;13.352;2024-02-26T02:11:58;16.85;;;8.02;;
31043;SDS011;17710;52.520;13.352;2024-02-26T02:14:25;16.50;;;7.95;;
31043;SDS011;17710;52.520;13.352;2024-02-26T02:16:53;14.60;;;8.35;;
31043;SDS011;17710;52.520;13.352;2024-02-26T02:19:19;13.73;;;7.32;;
31043;SDS011;17710;52.520;13.352;2024-02-26T02:21:47;13.82;;;8.25;;
31043;SDS011;17710;52.520;13.352;2024-02-26T02:24:13;14.40;;;7.80;;
31043;SDS011;17710;52.520;13.352;2024-02-26T02:26:40;16.63;;;8.55;;
31043;SDS011;17710;52.520;13.352;2024-02-26T02:29:06;15.40;;;9.30;;
31043;SDS011;17710;52.520;13.352;2024-02-26T02:31:34;15.90;;;8.73;;
31043;SDS011;17710;52.520;13.352;2024-02-26T02:34:00;15.55;;;8.88;;
31043;SDS011;17710;52.520;13.352;2024-02-26T02:36:27;16.25;;;7.72;;
31043;SDS011;17710;52.520;13.352;2024-02-26T02:38:55;18.50;;;9.05;;
31043;SDS011;17710;52.520;13.352;2024-02-26T02:41:21;15.68;;;8.02;;
31043;SDS011;17710;52.520;13.352;2024-02-26T02:43:47;16.80;;;8.13;;
31043;SDS011;17710;52.520;13.352;2024-02-26T02:46:14;14.60;;;7.97;;
31043;SDS011;17710;52.520;13.352;2024-02-26T02:48:41;14.07;;;8.45;;
31043;SDS011;17710;52.520;13.352;2024-02-26T02:51:07;12.85;;;7.88;;
31043;SDS011;17710;52.520;13.352;2024-02-26T02:53:34;14.80;;;8.10;;
31043;SDS011;17710;52.520;13.352;2024-02-26T02:56:01;15.50;;;8.60;;
31043;SDS011;17710;52.520;13.352;2024-02-26T02:58:28;17.13;;;8.15;;
31043;SDS011;17710;52.520;13.352;2024-02-26T03:00:54;13.48;;;8.05;;
31043;SDS011;17710;52.520;13.352;2024-02-26T03:03:21;14.57;;;8.20;;
31043;SDS011;17710;52.520;13.352;2024-02-26T03:05:49;11.40;;;7.35;;
31043;SDS011;17710;52.520;13.352;2024-02-26T03:08:15;10.88;;;7.22;;
31043;SDS011;17710;52.520;13.352;2024-02-26T03:10:41;13.85;;;7.28;;
31043;SDS011;17710;52.520;13.352;2024-02-26T03:13:09;13.07;;;7.45;;
31043;SDS011;17710;52.520;13.352;2024-02-26T03:15:36;10.40;;;6.70;;
31043;SDS011;17710;52.520;13.352;2024-02-26T03:18:03;9.43;;;6.03;;
31043;SDS011;17710;52.520;13.352;2024-02-26T03:20:29;14.02;;;6.07;;
31043;SDS011;17710;52.520;13.352;2024-02-26T03:22:56;9.77;;;6.05;;
31043;SDS011;17710;52.520;13.352;2024-02-26T03:25:22;15.63;;;6.68;;
31043;SDS011;17710;52.520;13.352;2024-02-26T03:27:48;11.40;;;6.40;;
31043;SDS011;17710;52.520;13.352;2024-02-26T03:30:16;12.95;;;6.05;;
31043;SDS011;17710;52.520;13.352;2024-02-26T03:32:43;14.48;;;6.10;;
31043;SDS011;17710;52.520;13.352;2024-02-26T03:35:09;12.93;;;5.78;;
31043;SDS011;17710;52.520;13.352;2024-02-26T03:37:35;10.02;;;6.03;;
31043;SDS011;17710;52.520;13.352;2024-02-26T03:40:02;13.30;;;6.03;;
31043;SDS011;17710;52.520;13.352;2024-02-26T03:42:29;7.90;;;5.70;;
31043;SDS011;17710;52.520;13.352;2024-02-26T03:44:55;8.60;;;5.43;;
31043;SDS011;17710;52.520;13.352;2024-02-26T03:47:23;10.30;;;5.20;;
31043;SDS011;17710;52.520;13.352;2024-02-26T03:49:49;9.55;;;5.47;;
31043;SDS011;17710;52.520;13.352;2024-02-26T03:52:15;10.63;;;5.40;;
31043;SDS011;17710;52.520;13.352;2024-02-26T03:54:42;9.15;;;5.00;;
31043;SDS011;17710;52.520;13.352;2024-02-26T03:57:08;9.20;;;5.82;;
31043;SDS011;17710;52.520;13.352;2024-02-26T03:59:35;10.48;;;5.43;;
31043;SDS011;17710;52.520;13.352;2024-02-26T04:02:02;8.48;;;5.15;;
31043;SDS011;17710;52.520;13.352;2024-02-26T04:04:29;10.68;;;5.47;;
31043;SDS011;17710;52.520;13.352;2024-02-26T04:06:56;8.10;;;5.13;;
31043;SDS011;17710;52.520;13.352;2024-02-26T04:09:22;10.95;;;6.18;;
31043;SDS011;17710;52.520;13.352;2024-02-26T04:11:48;8.35;;;5.35;;
31043;SDS011;17710;52.520;13.352;2024-02-26T04:14:15;10.15;;;5.18;;
31043;SDS011;17710;52.520;13.352;2024-02-26T04:16:41;9.10;;;5.40;;
31043;SDS011;17710;52.520;13.352;2024-02-26T04:19:08;7.75;;;5.45;;
31043;SDS011;17710;52.520;13.352;2024-02-26T04:21:36;10.82;;;5.10;;
31043;SDS011;17710;52.520;13.352;2024-02-26T04:24:03;9.23;;;5.47;;
31043;SDS011;17710;52.520;13.352;2024-02-26T04:26:30;9.50;;;5.82;;
31043;SDS011;17710;52.520;13.352;2024-02-26T04:28:56;8.45;;;5.47;;
31043;SDS011;17710;52.520;13.352;2024-02-26T04:31:22;8.93;;;5.75;;
31043;SDS011;17710;52.520;13.352;2024-02-26T04:33:52;8.23;;;5.80;;
31043;SDS011;17710;52.520;13.352;2024-02-26T04:36:19;10.98;;;5.88;;
31043;SDS011;17710;52.520;13.352;2024-02-26T04:38:46;10.15;;;5.82;;
31043;SDS011;17710;52.520;13.352;2024-02-26T04:41:12;9.80;;;5.93;;
31043;SDS011;17710;52.520;13.352;2024-02-26T04:43:39;9.00;;;5.50;;
31043;SDS011;17710;52.520;13.352;2024-02-26T04:46:06;10.80;;;6.10;;
31043;SDS011;17710;52.520;13.352;2024-02-26T04:48:33;8.15;;;5.47;;
31043;SDS011;17710;52.520;13.352;2024-02-26T04:50:59;8.90;;;5.63;;
31043;SDS011;17710;52.520;13.352;2024-02-26T04:53:26;13.77;;;6.70;;
31043;SDS011;17710;52.520;13.352;2024-02-26T04:55:53;12.30;;;6.22;;
31043;SDS011;17710;52.520;13.352;2024-02-26T04:58:20;11.55;;;6.22;;
31043;SDS011;17710;52.520;13.352;2024-02-26T05:00:46;10.35;;;5.75;;
31043;SDS011;17710;52.520;13.352;2024-02-26T05:05:40;11.13;;;6.30;;
31043;SDS011;17710;52.520;13.352;2024-02-26T05:08:07;11.60;;;6.82;;
31043;SDS011;17710;52.520;13.352;2024-02-26T05:10:33;15.73;;;6.43;;
31043;SDS011;17710;52.520;13.352;2024-02-26T05:13:05;11.75;;;5.75;;
31043;SDS011;17710;52.520;13.352;2024-02-26T05:15:31;11.23;;;6.65;;
31043;SDS011;17710;52.520;13.352;2024-02-26T05:17:58;9.50;;;6.03;;
31043;SDS011;17710;52.520;13.352;2024-02-26T05:20:25;14.35;;;6.55;;
31043;SDS011;17710;52.520;13.352;2024-02-26T05:22:51;12.98;;;6.78;;
31043;SDS011;17710;52.520;13.352;2024-02-26T05:25:17;11.07;;;6.75;;
31043;SDS011;17710;52.520;13.352;2024-02-26T05:27:45;13.93;;;6.68;;
31043;SDS011;17710;52.520;13.352;2024-02-26T05:30:13;11.82;;;7.20;;
31043;SDS011;17710;52.520;13.352;2024-02-26T05:32:40;25.30;;;8.23;;
31043;SDS011;17710;52.520;13.352;2024-02-26T05:35:07;12.15;;;7.05;;
31043;SDS011;17710;52.520;13.352;2024-02-26T05:37:33;12.50;;;7.40;;
31043;SDS011;17710;52.520;13.352;2024-02-26T05:39:59;14.45;;;7.40;;
31043;SDS011;17710;52.520;13.352;2024-02-26T05:42:26;18.00;;;6.85;;
31043;SDS011;17710;52.520;13.352;2024-02-26T05:44:52;14.05;;;7.88;;
31043;SDS011;17710;52.520;13.352;2024-02-26T05:47:20;14.43;;;7.35;;
31043;SDS011;17710;52.520;13.352;2024-02-26T05:49:46;15.88;;;8.02;;
31043;SDS011;17710;52.520;13.352;2024-02-26T05:52:13;14.82;;;8.38;;
31043;SDS011;17710;52.520;13.352;2024-02-26T05:54:40;17.33;;;8.30;;
31043;SDS011;17710;52.520;13.352;2024-02-26T05:57:06;16.48;;;9.25;;
31043;SDS011;17710;52.520;13.352;2024-02-26T05:59:33;16.85;;;8.43;;
31043;SDS011;17710;52.520;13.352;2024-02-26T06:01:59;14.80;;;8.95;;
31043;SDS011;17710;52.520;13.352;2024-02-26T06:04:27;15.73;;;8.70;;
31043;SDS011;17710;52.520;13.352;2024-02-26T06:06:53;13.75;;;8.23;;
31043;SDS011;17710;52.520;13.352;2024-02-26T06:09:19;14.65;;;8.65;;
31043;SDS011;17710;52.520;13.352;2024-02-26T06:11:46;15.15;;;8.15;;
31043;SDS011;17710;52.520;13.352;2024-02-26T06:14:12;12.98;;;7.97;;
31043;SDS011;17710;52.520;13.352;2024-02-26T06:16:43;18.40;;;8.90;;
31043;SDS011;17710;52.520;13.352;2024-02-26T06:19:09;15.60;;;9.43;;
31043;SDS011;17710;52.520;13.352;2024-02-26T06:21:37;18.90;;;9.23;;
31043;SDS011;17710;52.520;13.352;2024-02-26T06:24:04;15.48;;;9.82;;
31043;SDS011;17710;52.520;13.352;2024-02-26T06:26:30;19.02;;;11.23;;
31043;SDS011;17710;52.520;13.352;2024-02-26T06:28:58;17.38;;;9.48;;
31043;SDS011;17710;52.520;13.352;2024-02-26T06:31:25;20.83;;;9.80;;
31043;SDS011;17710;52.520;13.352;2024-02-26T06:33:52;23.70;;;11.00;;
31043;SDS011;17710;52.520;13.352;2024-02-26T06:36:18;20.83;;;9.95;;
31043;SDS011;17710;52.520;13.352;2024-02-26T06:38:46;18.30;;;10.20;;
31043;SDS011;17710;52.520;13.352;2024-02-26T06:41:14;19.45;;;10.68;;
31043;SDS011;17710;52.520;13.352;2024-02-26T06:43:40;21.60;;;10.90;;
31043;SDS011;17710;52.520;13.352;2024-02-26T06:46:06;18.67;;;11.43;;
31043;SDS011;17710;52.520;13.352;2024-02-26T06:48:33;23.00;;;11.75;;
31043;SDS011;17710;52.520;13.352;2024-02-26T06:51:01;18.75;;;10.90;;
31043;SDS011;17710;52.520;13.352;2024-02-26T06:53:28;45.38;;;23.95;;
31043;SDS011;17710;52.520;13.352;2024-02-26T06:55:56;19.73;;;11.32;;
31043;SDS011;17710;52.520;13.352;2024-02-26T06:58:22;20.13;;;12.15;;
31043;SDS011;17710;52.520;13.352;2024-02-26T07:00:49;23.27;;;11.13;;
31043;SDS011;17710;52.520;13.352;2024-02-26T07:03:15;24.48;;;11.25;;
31043;SDS011;17710;52.520;13.352;2024-02-26T07:05:41;21.88;;;12.18;;
31043;SDS011;17710;52.520;13.352;2024-02-26T07:08:10;17.92;;;11.75;;
31043;SDS011;17710;52.520;13.352;2024-02-26T07:10:36;21.65;;;12.20;;
31043;SDS011;17710;52.520;13.352;2024-02-26T07:13:04;22.00;;;13.02;;
31043;SDS011;17710;52.520;13.352;2024-02-26T07:15:30;28.13;;;13.50;;
31043;SDS011;17710;52.520;13.352;2024-02-26T07:17:58;26.08;;;12.80;;
31043;SDS011;17710;52.520;13.352;2024-02-26T07:20:28;19.95;;;12.18;;
31043;SDS011;17710;52.520;13.352;2024-02-26T07:22:54;25.67;;;12.93;;
31043;SDS011;17710;52.520;13.352;2024-02-26T07:25:20;27.45;;;12.20;;
31043;SDS011;17710;52.520;13.352;2024-02-26T07:27:47;19.23;;;12.80;;
31043;SDS011;17710;52.520;13.352;2024-02-26T07:30:15;20.50;;;12.20;;
31043;SDS011;17710;52.520;13.352;2024-02-26T07:32:41;19.23;;;12.57;;
31043;SDS011;17710;52.520;13.352;2024-02-26T07:35:08;17.38;;;11.80;;
31043;SDS011;17710;52.520;13.352;2024-02-26T07:37:35;22.52;;;12.32;;
31043;SDS011;17710;52.520;13.352;2024-02-26T07:40:01;27.33;;;13.40;;
31043;SDS011;17710;52.520;13.352;2024-02-26T07:42:28;23.73;;;12.98;;
31043;SDS011;17710;52.520;13.352;2024-02-26T07:44:54;20.10;;;12.80;;
31043;SDS011;17710;52.520;13.352;2024-02-26T07:47:22;22.80;;;14.07;;
31043;SDS011;17710;52.520;13.352;2024-02-26T07:49:48;25.67;;;13.30;;
31043;SDS011;17710;52.520;13.352;2024-02-26T07:52:15;27.83;;;12.68;;
31043;SDS011;17710;52.520;13.352;2024-02-26T07:54:41;21.55;;;13.20;;
31043;SDS011;17710;52.520;13.352;2024-02-26T07:57:08;24.92;;;13.27;;
31043;SDS011;17710;52.520;13.352;2024-02-26T07:59:34;25.02;;;13.18;;
31043;SDS011;17710;52.520;13.352;2024-02-26T08:02:00;25.92;;;13.88;;
31043;SDS011;17710;52.520;13.352;2024-02-26T08:04:29;21.70;;;12.80;;
31043;SDS011;17710;52.520;13.352;2024-02-26T08:06:55;24.33;;;13.85;;
31043;SDS011;17710;52.520;13.352;2024-02-26T08:09:22;21.55;;;13.75;;
31043;SDS011;17710;52.520;13.352;2024-02-26T08:11:48;27.00;;;13.95;;
31043;SDS011;17710;52.520;13.352;2024-02-26T08:14:14;27.25;;;13.27;;
31043;SDS011;17710;52.520;13.352;2024-02-26T08:16:41;26.88;;;14.60;;
31043;SDS011;17710;52.520;13.352;2024-02-26T08:19:07;27.65;;;14.70;;
31043;SDS011;17710;52.520;13.352;2024-02-26T08:21:36;22.77;;;15.00;;
31043;SDS011;17710;52.520;13.352;2024-02-26T08:24:03;24.30;;;13.85;;
31043;SDS011;17710;52.520;13.352;2024-02-26T08:26:29;22.83;;;13.63;;
31043;SDS011;17710;52.520;13.352;2024-02-26T08:28:56;31.23;;;14.32;;
31043;SDS011;17710;52.520;13.352;2024-02-26T08:31:23;24.05;;;14.02;;
31043;SDS011;17710;52.520;13.352;2024-02-26T08:33:49;21.88;;;13.20;;
31043;SDS011;17710;52.520;13.352;2024-02-26T08:36:16;26.58;;;14.35;;
31043;SDS011;17710;52.520;13.352;2024-02-26T08:38:44;24.38;;;13.02;;
31043;SDS011;17710;52.520;13.352;2024-02-26T08:41:10;22.73;;;14.13;;
31043;SDS011;17710;52.520;13.352;2024-02-26T08:43:37;26.67;;;13.48;;
31043;SDS011;17710;52.520;13.352;2024-02-26T08:46:03;22.67;;;13.30;;
31043;SDS011;17710;52.520;13.352;2024-02-26T08:48:30;23.58;;;13.68;;
31043;SDS011;17710;52.520;13.352;2024-02-26T08:50:56;21.50;;;12.88;;
31043;SDS011;17710;52.520;13.352;2024-02-26T08:53:23;28.48;;;14.05;;
31043;SDS011;17710;52.520;13.352;2024-02-26T08:55:53;25.65;;;13.93;;
31043;SDS011;17710;52.520;13.352;2024-02-26T08:58:19;25.08;;;12.98;;
31043;SDS011;17710;52.520;13.352;2024-02-26T09:00:46;23.23;;;13.82;;
31043;SDS011;17710;52.520;13.352;2024-02-26T09:03:12;24.58;;;13.65;;
31043;SDS011;17710;52.520;13.352;2024-02-26T09:05:38;26.52;;;13.65;;
31043;SDS011;17710;52.520;13.352;2024-02-26T09:08:05;26.55;;;13.98;;
31043;SDS011;17710;52.520;13.352;2024-02-26T09:10:32;29.60;;;14.15;;
31043;SDS011;17710;52.520;13.352;2024-02-26T09:13:00;22.35;;;13.90;;
31043;SDS011;17710;52.520;13.352;2024-02-26T09:15:26;24.45;;;13.35;;
31043;SDS011;17710;52.520;13.352;2024-02-26T09:17:52;24.67;;;12.98;;
31043;SDS011;17710;52.520;13.352;2024-02-26T09:20:19;23.27;;;13.52;;
31043;SDS011;17710;52.520;13.352;2024-02-26T09:22:46;22.23;;;13.23;;
31043;SDS011;17710;52.520;13.352;2024-02-26T09:25:13;30.02;;;13.82;;
31043;SDS011;17710;52.520;13.352;2024-02-26T09:27:40;21.33;;;13.68;;
31043;SDS011;17710;52.520;13.352;2024-02-26T09:30:09;32.40;;;14.70;;
31043;SDS011;17710;52.520;13.352;2024-02-26T09:32:36;26.13;;;14.15;;
31043;SDS011;17710;52.520;13.352;2024-02-26T09:35:03;25.50;;;13.55;;
31043;SDS011;17710;52.520;13.352;2024-02-26T09:37:31;27.05;;;15.90;;
31043;SDS011;17710;52.520;13.352;2024-02-26T09:39:57;28.25;;;14.73;;
31043;SDS011;17710;52.520;13.352;2024-02-26T09:42:24;25.15;;;13.00;;
31043;SDS011;17710;52.520;13.352;2024-02-26T09:44:53;26.63;;;12.32;;
31043;SDS011;17710;52.520;13.352;2024-02-26T09:47:22;25.33;;;14.00;;
31043;SDS011;17710;52.520;13.352;2024-02-26T09:49:49;20.35;;;12.52;;
31043;SDS011;17710;52.520;13.352;2024-02-26T09:52:17;23.20;;;13.07;;
31043;SDS011;17710;52.520;13.352;2024-02-26T09:54:46;20.83;;;12.38;;
31043;SDS011;17710;52.520;13.352;2024-02-26T09:57:13;22.20;;;12.00;;
31043;SDS011;17710;52.520;13.352;2024-02-26T09:59:42;26.08;;;12.05;;
31043;SDS011;17710;52.520;13.352;2024-02-26T10:02:11;20.38;;;11.85;;
31043;SDS011;17710;52.520;13.352;2024-02-26T10:04:40;18.63;;;11.50;;
31043;SDS011;17710;52.520;13.352;2024-02-26T10:07:09;17.75;;;11.55;;
31043;SDS011;17710;52.520;13.352;2024-02-26T10:09:36;19.48;;;11.75;;
31043;SDS011;17710;52.520;13.352;2024-02-26T10:12:03;18.98;;;12.05;;
31043;SDS011;17710;52.520;13.352;2024-02-26T10:14:30;22.55;;;13.00;;
31043;SDS011;17710;52.520;13.352;2024-02-26T10:16:57;25.55;;;11.40;;
31043;SDS011;17710;52.520;13.352;2024-02-26T10:19:26;26.98;;;13.20;;
31043;SDS011;17710;52.520;13.352;2024-02-26T10:21:57;20.35;;;12.38;;
31043;SDS011;17710;52.520;13.352;2024-02-26T10:24:24;20.27;;;11.93;;
31043;SDS011;17710;52.520;13.352;2024-02-26T10:26:51;17.95;;;11.07;;
31043;SDS011;17710;52.520;13.352;2024-02-26T10:29:18;18.45;;;11.43;;
31043;SDS011;17710;52.520;13.352;2024-02-26T10:31:45;26.38;;;10.82;;
31043;SDS011;17710;52.520;13.352;2024-02-26T10:34:12;20.80;;;11.57;;
31043;SDS011;17710;52.520;13.352;2024-02-26T10:36:40;23.63;;;11.63;;
31043;SDS011;17710;52.520;13.352;2024-02-26T10:39:10;19.10;;;11.38;;
31043;SDS011;17710;52.520;13.352;2024-02-26T10:41:39;16.58;;;10.43;;
31043;SDS011;17710;52.520;13.352;2024-02-26T10:44:06;22.95;;;11.73;;
31043;SDS011;17710;52.520;13.352;2024-02-26T10:46:35;18.63;;;11.05;;
31043;SDS011;17710;52.520;13.352;2024-02-26T10:49:03;17.35;;;10.20;;
31043;SDS011;17710;52.520;13.352;2024-02-26T10:51:31;15.18;;;9.20;;
31043;SDS011;17710;52.520;13.352;2024-02-26T10:54:01;21.25;;;9.52;;
31043;SDS011;17710;52.520;13.352;2024-02-26T10:56:33;18.55;;;10.35;;
31043;SDS011;17710;52.520;13.352;2024-02-26T10:59:02;18.63;;;9.15;;
31043;SDS011;17710;52.520;13.352;2024-02-26T11:01:30;17.60;;;10.07;;
31043;SDS011;17710;52.520;13.352;2024-02-26T11:03:57;19.58;;;9.77;;
31043;SDS011;17710;52.520;13.352;2024-02-26T11:06:24;15.93;;;9.30;;
31043;SDS011;17710;52.520;13.352;2024-02-26T11:08:52;16.00;;;8.85;;
31043;SDS011;17710;52.520;13.352;2024-02-26T11:11:20;15.23;;;7.97;;
31043;SDS011;17710;52.520;13.352;2024-02-26T11:13:48;14.82;;;8.82;;
31043;SDS011;17710;52.520;13.352;2024-02-26T11:16:17;14.63;;;8.60;;
31043;SDS011;17710;52.520;13.352;2024-02-26T11:18:45;17.27;;;8.93;;
31043;SDS011;17710;52.520;13.352;2024-02-26T11:21:13;14.43;;;8.10;;
31043;SDS011;17710;52.520;13.352;2024-02-26T11:23:41;15.07;;;9.43;;
31043;SDS011;17710;52.520;13.352;2024-02-26T11:26:08;14.70;;;9.00;;
31043;SDS011;17710;52.520;13.352;2024-02-26T11:28:37;20.40;;;9.30;;
31043;SDS011;17710;52.520;13.352;2024-02-26T11:31:06;13.30;;;8.70;;
31043;SDS011;17710;52.520;13.352;2024-02-26T11:33:34;14.10;;;9.00;;
31043;SDS011;17710;52.520;13.352;2024-02-26T11:36:01;16.30;;;9.13;;
31043;SDS011;17710;52.520;13.352;2024-02-26T11:38:28;13.15;;;8.88;;
31043;SDS011;17710;52.520;13.352;2024-02-26T11:40:55;14.00;;;8.85;;
31043;SDS011;17710;52.520;13.352;2024-02-26T11:43:23;16.45;;;9.40;;
31043;SDS011;17710;52.520;13.352;2024-02-26T11:45:50;16.15;;;9.07;;
31043;SDS011;17710;52.520;13.352;2024-02-26T11:48:22;15.68;;;8.88;;
31043;SDS011;17710;52.520;13.352;2024-02-26T11:50:50;18.05;;;10.68;;
31043;SDS011;17710;52.520;13.352;2024-02-26T11:53:22;15.27;;;9.43;;
31043;SDS011;17710;52.520;13.352;2024-02-26T11:58:39;13.85;;;9.02;;
31043;SDS011;17710;52.520;13.352;2024-02-26T12:01:16;17.15;;;10.35;;
31043;SDS011;17710;52.520;13.352;2024-02-26T12:04:03;13.98;;;9.55;;
31043;SDS011;17710;52.520;13.352;2024-02-26T12:06:31;16.75;;;9.93;;
31043;SDS011;17710;52.520;13.352;2024-02-26T12:08:57;16.05;;;10.13;;
31043;SDS011;17710;52.520;13.352;2024-02-26T12:11:26;15.63;;;10.35;;
31043;SDS011;17710;52.520;13.352;2024-02-26T12:13:53;19.63;;;11.60;;
31043;SDS011;17710;52.520;13.352;2024-02-26T12:16:34;18.52;;;11.88;;
31043;SDS011;17710;52.520;13.352;2024-02-26T12:19:02;20.92;;;10.68;;
31043;SDS011;17710;52.520;13.352;2024-02-26T12:21:33;16.35;;;11.15;;
31043;SDS011;17710;52.520;13.352;2024-02-26T12:24:10;17.67;;;9.90;;
31043;SDS011;17710;52.520;13.352;2024-02-26T12:26:41;16.95;;;10.63;;
31043;SDS011;17710;52.520;13.352;2024-02-26T12:29:08;18.17;;;10.40;;
31043;SDS011;17710;52.520;13.352;2024-02-26T12:31:34;17.60;;;10.75;;
31043;SDS011;17710;52.520;13.352;2024-02-26T12:34:03;16.52;;;10.20;;
31043;SDS011;17710;52.520;13.352;2024-02-26T12:36:32;18.00;;;9.77;;
31043;SDS011;17710;52.520;13.352;2024-02-26T12:39:00;16.77;;;10.43;;
31043;SDS011;17710;52.520;13.352;2024-02-26T12:41:30;16.20;;;10.00;;
31043;SDS011;17710;52.520;13.352;2024-02-26T12:43:57;16.73;;;9.02;;
31043;SDS011;17710;52.520;13.352;2024-02-26T12:46:24;16.23;;;8.38;;
31043;SDS011;17710;52.520;13.352;2024-02-26T12:48:50;12.55;;;8.23;;
31043;SDS011;17710;52.520;13.352;2024-02-26T12:51:18;18.50;;;8.55;;
31043;SDS011;17710;52.520;13.352;2024-02-26T12:53:46;13.15;;;8.48;;
31043;SDS011;17710;52.520;13.352;2024-02-26T12:56:15;14.98;;;8.35;;
31043;SDS011;17710;52.520;13.352;2024-02-26T12:58:42;15.00;;;7.82;;
31043;SDS011;17710;52.520;13.352;2024-02-26T13:01:13;11.98;;;7.60;;
31043;SDS011;17710;52.520;13.352;2024-02-26T13:03:41;13.15;;;8.00;;
31043;SDS011;17710;52.520;13.352;2024-02-26T13:06:08;11.32;;;7.78;;
31043;SDS011;17710;52.520;13.352;2024-02-26T13:08:37;11.77;;;7.40;;
31043;SDS011;17710;52.520;13.352;2024-02-26T13:11:03;11.38;;;6.72;;
31043;SDS011;17710;52.520;13.352;2024-02-26T13:13:30;9.90;;;6.53;;
31043;SDS011;17710;52.520;13.352;2024-02-26T13:16:01;12.63;;;6.60;;
31043;SDS011;17710;52.520;13.352;2024-02-26T13:18:29;9.65;;;5.95;;
31043;SDS011;17710;52.520;13.352;2024-02-26T13:21:06;10.43;;;5.95;;
31043;SDS011;17710;52.520;13.352;2024-02-26T13:23:38;8.32;;;5.53;;
31043;SDS011;17710;52.520;13.352;2024-02-26T13:26:05;8.23;;;5.60;;
31043;SDS011;17710;52.520;13.352;2024-02-26T13:28:32;8.90;;;5.32;;
31043;SDS011;17710;52.520;13.352;2024-02-26T13:31:00;9.15;;;5.47;;
31043;SDS011;17710;52.520;13.352;2024-02-26T13:33:29;11.82;;;5.72;;
31043;SDS011;17710;52.520;13.352;2024-02-26T13:35:57;9.65;;;5.07;;
31043;SDS011;17710;52.520;13.352;2024-02-26T13:38:24;7.75;;;5.03;;
31043;SDS011;17710;52.520;13.352;2024-02-26T13:40:52;7.93;;;5.32;;
31043;SDS011;17710;52.520;13.352;2024-02-26T13:43:19;6.32;;;4.30;;
31043;SDS011;17710;52.520;13.352;2024-02-26T13:45:46;6.93;;;4.28;;
31043;SDS011;17710;52.520;13.352;2024-02-26T13:48:13;6.07;;;4.10;;
31043;SDS011;17710;52.520;13.352;2024-02-26T13:50:39;5.97;;;3.85;;
31043;SDS011;17710;52.520;13.352;2024-02-26T13:53:08;8.43;;;3.50;;
31043;SDS011;17710;52.520;13.352;2024-02-26T13:55:34;6.00;;;3.60;;
31043;SDS011;17710;52.520;13.352;2024-02-26T13:58:02;4.03;;;3.22;;
31043;SDS011;17710;52.520;13.352;2024-02-26T14:00:29;6.10;;;3.60;;
31043;SDS011;17710;52.520;13.352;2024-02-26T14:02:58;3.20;;;2.72;;
31043;SDS011;17710;52.520;13.352;2024-02-26T14:05:25;6.88;;;3.53;;
31043;SDS011;17710;52.520;13.352;2024-02-26T14:07:51;5.40;;;3.55;;
31043;SDS011;17710;52.520;13.352;2024-02-26T14:10:18;7.05;;;3.40;;
31043;SDS011;17710;52.520;13.352;2024-02-26T14:12:45;5.75;;;2.90;;
31043;SDS011;17710;52.520;13.352;2024-02-26T14:15:13;4.70;;;3.42;;
31043;SDS011;17710;52.520;13.352;2024-02-26T14:17:39;9.57;;;3.60;;
31043;SDS011;17710;52.520;13.352;2024-02-26T14:20:06;13.70;;;4.65;;
31043;SDS011;17710;52.520;13.352;2024-02-26T14:22:34;7.65;;;4.15;;
31043;SDS011;17710;52.520;13.352;2024-02-26T14:25:00;5.88;;;3.80;;
31043;SDS011;17710;52.520;13.352;2024-02-26T14:27:27;5.68;;;3.13;;